sensor_id;sensor_type;location;lat;lon;timestamp;P1;durP1;ratioP1;P2;durP2;ratioP2
11338;SDS011;5724;42.684;23.252;2022-10-16T00:00:15;10.33;;;9.43;;
11338;SDS011;5724;42.684;23.252;2022-10-16T00:02:41;10.73;;;9.83;;
11338;SDS011;5724;42.684;23.252;2022-10-16T00:05:06;10.40;;;9.60;;
11338;SDS011;5724;42.684;23.252;2022-10-16T00:07:31;10.73;;;9.70;;
11338;SDS011;5724;42.684;23.252;2022-10-16T00:09:57;11.80;;;10.60;;
11338;SDS011;5724;42.684;23.252;2022-10-16T00:12:22;10.60;;;9.57;;
11338;SDS011;5724;42.684;23.252;2022-10-16T00:14:48;10.20;;;9.40;;
11338;SDS011;5724;42.684;23.252;2022-10-16T00:17:13;13.20;;;10.43;;
11338;SDS011;5724;42.684;23.252;2022-10-16T00:19:39;10.90;;;10.00;;
11338;SDS011;5724;42.684;23.252;2022-10-16T00:22:04;10.70;;;9.80;;
11338;SDS011;5724;42.684;23.252;2022-10-16T00:24:30;10.70;;;9.70;;
11338;SDS011;5724;42.684;23.252;2022-10-16T00:26:55;11.57;;;10.57;;
11338;SDS011;5724;42.684;23.252;2022-10-16T00:29:20;11.57;;;10.57;;
11338;SDS011;5724;42.684;23.252;2022-10-16T00:31:46;10.73;;;9.87;;
11338;SDS011;5724;42.684;23.252;2022-10-16T00:34:11;11.13;;;10.20;;
11338;SDS011;5724;42.684;23.252;2022-10-16T00:36:37;10.63;;;9.70;;
11338;SDS011;5724;42.684;23.252;2022-10-16T00:39:02;10.03;;;9.20;;
11338;SDS011;5724;42.684;23.252;2022-10-16T00:41:28;11.07;;;9.93;;
11338;SDS011;5724;42.684;23.252;2022-10-16T00:43:58;10.47;;;9.60;;
11338;SDS011;5724;42.684;23.252;2022-10-16T00:46:27;10.33;;;9.40;;
11338;SDS011;5724;42.684;23.252;2022-10-16T00:49:09;10.30;;;9.50;;
11338;SDS011;5724;42.684;23.252;2022-10-16T00:51:37;10.47;;;9.37;;
11338;SDS011;5724;42.684;23.252;2022-10-16T00:54:14;9.70;;;9.00;;
11338;SDS011;5724;42.684;23.252;2022-10-16T00:56:43;10.27;;;9.27;;
11338;SDS011;5724;42.684;23.252;2022-10-16T00:59:15;9.50;;;8.90;;
11338;SDS011;5724;42.684;23.252;2022-10-16T01:01:43;9.07;;;8.27;;
11338;SDS011;5724;42.684;23.252;2022-10-16T01:04:08;9.20;;;8.40;;
11338;SDS011;5724;42.684;23.252;2022-10-16T01:06:46;9.70;;;8.60;;
11338;SDS011;5724;42.684;23.252;2022-10-16T01:09:23;21.50;;;8.97;;
11338;SDS011;5724;42.684;23.252;2022-10-16T01:28:22;9.17;;;8.47;;
11338;SDS011;5724;42.684;23.252;2022-10-16T01:30:56;8.57;;;7.87;;
11338;SDS011;5724;42.684;23.252;2022-10-16T01:33:26;9.20;;;8.37;;
11338;SDS011;5724;42.684;23.252;2022-10-16T01:36:02;9.77;;;8.83;;
11338;SDS011;5724;42.684;23.252;2022-10-16T01:38:36;9.53;;;8.70;;
11338;SDS011;5724;42.684;23.252;2022-10-16T01:41:14;9.97;;;9.30;;
11338;SDS011;5724;42.684;23.252;2022-10-16T01:43:45;9.97;;;9.20;;
11338;SDS011;5724;42.684;23.252;2022-10-16T01:46:15;10.03;;;9.03;;
11338;SDS011;5724;42.684;23.252;2022-10-16T01:48:45;10.80;;;9.80;;
11338;SDS011;5724;42.684;23.252;2022-10-16T01:51:14;11.10;;;10.03;;
11338;SDS011;5724;42.684;23.252;2022-10-16T01:53:41;12.33;;;10.30;;
11338;SDS011;5724;42.684;23.252;2022-10-16T01:56:11;10.37;;;9.67;;
11338;SDS011;5724;42.684;23.252;2022-10-16T01:58:41;11.70;;;10.57;;
11338;SDS011;5724;42.684;23.252;2022-10-16T02:01:12;10.00;;;9.20;;
11338;SDS011;5724;42.684;23.252;2022-10-16T02:03:41;11.17;;;10.00;;
11338;SDS011;5724;42.684;23.252;2022-10-16T02:06:09;10.13;;;9.30;;
11338;SDS011;5724;42.684;23.252;2022-10-16T02:08:35;11.00;;;9.83;;
11338;SDS011;5724;42.684;23.252;2022-10-16T02:11:01;10.47;;;9.47;;
11338;SDS011;5724;42.684;23.252;2022-10-16T02:13:30;10.57;;;9.63;;
11338;SDS011;5724;42.684;23.252;2022-10-16T02:15:59;11.93;;;10.90;;
11338;SDS011;5724;42.684;23.252;2022-10-16T02:18:25;12.03;;;11.03;;
11338;SDS011;5724;42.684;23.252;2022-10-16T02:20:58;11.43;;;10.47;;
11338;SDS011;5724;42.684;23.252;2022-10-16T02:23:35;11.70;;;10.60;;
11338;SDS011;5724;42.684;23.252;2022-10-16T02:26:06;12.13;;;10.20;;
11338;SDS011;5724;42.684;23.252;2022-10-16T02:28:42;10.40;;;9.50;;
11338;SDS011;5724;42.684;23.252;2022-10-16T02:31:12;9.50;;;8.93;;
11338;SDS011;5724;42.684;23.252;2022-10-16T02:33:43;9.40;;;8.77;;
11338;SDS011;5724;42.684;23.252;2022-10-16T02:36:10;10.17;;;9.07;;
11338;SDS011;5724;42.684;23.252;2022-10-16T02:38:36;10.07;;;9.27;;
11338;SDS011;5724;42.684;23.252;2022-10-16T02:41:03;9.73;;;8.93;;
11338;SDS011;5724;42.684;23.252;2022-10-16T02:43:29;10.90;;;9.93;;
11338;SDS011;5724;42.684;23.252;2022-10-16T02:45:55;9.83;;;8.87;;
11338;SDS011;5724;42.684;23.252;2022-10-16T02:48:20;11.47;;;8.87;;
11338;SDS011;5724;42.684;23.252;2022-10-16T02:50:46;10.30;;;9.40;;
11338;SDS011;5724;42.684;23.252;2022-10-16T02:53:11;10.90;;;9.83;;
11338;SDS011;5724;42.684;23.252;2022-10-16T02:55:37;11.17;;;10.17;;
11338;SDS011;5724;42.684;23.252;2022-10-16T02:58:02;9.77;;;8.93;;
11338;SDS011;5724;42.684;23.252;2022-10-16T03:00:27;10.03;;;9.27;;
11338;SDS011;5724;42.684;23.252;2022-10-16T03:02:53;10.13;;;9.33;;
11338;SDS011;5724;42.684;23.252;2022-10-16T03:05:19;11.90;;;9.30;;
11338;SDS011;5724;42.684;23.252;2022-10-16T03:07:45;12.70;;;9.43;;
11338;SDS011;5724;42.684;23.252;2022-10-16T03:10:10;9.73;;;8.83;;
11338;SDS011;5724;42.684;23.252;2022-10-16T03:12:35;10.43;;;9.53;;
11338;SDS011;5724;42.684;23.252;2022-10-16T03:15:01;9.97;;;9.27;;
11338;SDS011;5724;42.684;23.252;2022-10-16T03:17:27;10.07;;;8.90;;
11338;SDS011;5724;42.684;23.252;2022-10-16T03:19:52;9.00;;;8.20;;
11338;SDS011;5724;42.684;23.252;2022-10-16T03:22:18;9.53;;;8.60;;
11338;SDS011;5724;42.684;23.252;2022-10-16T03:24:43;9.63;;;8.73;;
11338;SDS011;5724;42.684;23.252;2022-10-16T03:27:09;9.13;;;8.27;;
11338;SDS011;5724;42.684;23.252;2022-10-16T03:29:34;8.30;;;7.60;;
11338;SDS011;5724;42.684;23.252;2022-10-16T03:32:00;8.83;;;8.13;;
11338;SDS011;5724;42.684;23.252;2022-10-16T03:34:25;8.67;;;7.93;;
11338;SDS011;5724;42.684;23.252;2022-10-16T03:36:51;8.03;;;7.40;;
11338;SDS011;5724;42.684;23.252;2022-10-16T03:39:17;9.43;;;8.53;;
11338;SDS011;5724;42.684;23.252;2022-10-16T03:41:43;8.70;;;8.10;;
11338;SDS011;5724;42.684;23.252;2022-10-16T03:44:08;11.67;;;8.73;;
11338;SDS011;5724;42.684;23.252;2022-10-16T03:46:34;9.87;;;8.80;;
11338;SDS011;5724;42.684;23.252;2022-10-16T03:48:59;9.80;;;8.90;;
11338;SDS011;5724;42.684;23.252;2022-10-16T03:51:24;9.43;;;8.67;;
11338;SDS011;5724;42.684;23.252;2022-10-16T03:53:50;9.90;;;9.00;;
11338;SDS011;5724;42.684;23.252;2022-10-16T03:56:15;11.50;;;10.23;;
11338;SDS011;5724;42.684;23.252;2022-10-16T03:58:41;10.33;;;9.50;;
11338;SDS011;5724;42.684;23.252;2022-10-16T04:01:06;11.40;;;10.20;;
11338;SDS011;5724;42.684;23.252;2022-10-16T04:03:32;11.57;;;9.90;;
11338;SDS011;5724;42.684;23.252;2022-10-16T04:05:57;10.43;;;9.47;;
11338;SDS011;5724;42.684;23.252;2022-10-16T04:08:23;10.40;;;9.40;;
11338;SDS011;5724;42.684;23.252;2022-10-16T04:10:48;10.60;;;9.67;;
11338;SDS011;5724;42.684;23.252;2022-10-16T04:13:14;14.57;;;9.30;;
11338;SDS011;5724;42.684;23.252;2022-10-16T04:15:39;9.50;;;8.37;;
11338;SDS011;5724;42.684;23.252;2022-10-16T04:18:05;8.97;;;8.27;;
11338;SDS011;5724;42.684;23.252;2022-10-16T04:20:31;10.77;;;9.70;;
11338;SDS011;5724;42.684;23.252;2022-10-16T04:22:57;10.03;;;9.20;;
11338;SDS011;5724;42.684;23.252;2022-10-16T04:25:22;14.30;;;12.80;;
11338;SDS011;5724;42.684;23.252;2022-10-16T04:27:47;11.03;;;10.00;;
11338;SDS011;5724;42.684;23.252;2022-10-16T04:30:13;10.37;;;9.53;;
11338;SDS011;5724;42.684;23.252;2022-10-16T04:32:39;9.57;;;8.83;;
11338;SDS011;5724;42.684;23.252;2022-10-16T04:35:05;10.23;;;9.20;;
11338;SDS011;5724;42.684;23.252;2022-10-16T04:37:31;10.60;;;9.53;;
11338;SDS011;5724;42.684;23.252;2022-10-16T04:39:57;10.60;;;9.80;;
11338;SDS011;5724;42.684;23.252;2022-10-16T04:42:23;11.60;;;9.47;;
11338;SDS011;5724;42.684;23.252;2022-10-16T04:44:48;10.40;;;9.40;;
11338;SDS011;5724;42.684;23.252;2022-10-16T04:47:13;10.37;;;9.47;;
11338;SDS011;5724;42.684;23.252;2022-10-16T04:49:39;15.03;;;10.07;;
11338;SDS011;5724;42.684;23.252;2022-10-16T04:52:04;9.77;;;8.97;;
11338;SDS011;5724;42.684;23.252;2022-10-16T04:54:30;12.30;;;9.43;;
11338;SDS011;5724;42.684;23.252;2022-10-16T04:56:56;10.43;;;9.60;;
11338;SDS011;5724;42.684;23.252;2022-10-16T04:59:22;10.17;;;9.10;;
11338;SDS011;5724;42.684;23.252;2022-10-16T05:01:48;10.17;;;9.20;;
11338;SDS011;5724;42.684;23.252;2022-10-16T05:04:13;11.50;;;10.50;;
11338;SDS011;5724;42.684;23.252;2022-10-16T05:06:40;12.20;;;11.13;;
11338;SDS011;5724;42.684;23.252;2022-10-16T05:09:05;10.67;;;9.70;;
11338;SDS011;5724;42.684;23.252;2022-10-16T05:11:31;11.00;;;10.03;;
11338;SDS011;5724;42.684;23.252;2022-10-16T05:13:57;10.13;;;9.23;;
11338;SDS011;5724;42.684;23.252;2022-10-16T05:16:22;11.70;;;10.60;;
11338;SDS011;5724;42.684;23.252;2022-10-16T05:18:48;12.13;;;10.80;;
11338;SDS011;5724;42.684;23.252;2022-10-16T05:21:13;11.57;;;10.43;;
11338;SDS011;5724;42.684;23.252;2022-10-16T05:23:39;11.17;;;10.17;;
11338;SDS011;5724;42.684;23.252;2022-10-16T05:26:04;11.63;;;10.50;;
11338;SDS011;5724;42.684;23.252;2022-10-16T05:28:31;11.83;;;10.63;;
11338;SDS011;5724;42.684;23.252;2022-10-16T05:30:57;12.53;;;11.23;;
11338;SDS011;5724;42.684;23.252;2022-10-16T05:33:25;15.30;;;11.37;;
11338;SDS011;5724;42.684;23.252;2022-10-16T05:35:51;11.87;;;10.93;;
11338;SDS011;5724;42.684;23.252;2022-10-16T05:38:17;12.50;;;11.27;;
11338;SDS011;5724;42.684;23.252;2022-10-16T05:40:43;12.70;;;11.40;;
11338;SDS011;5724;42.684;23.252;2022-10-16T05:43:15;13.60;;;11.10;;
11338;SDS011;5724;42.684;23.252;2022-10-16T05:45:41;12.53;;;11.23;;
11338;SDS011;5724;42.684;23.252;2022-10-16T05:48:06;13.30;;;12.00;;
11338;SDS011;5724;42.684;23.252;2022-10-16T05:50:32;13.70;;;12.60;;
11338;SDS011;5724;42.684;23.252;2022-10-16T05:52:57;14.40;;;12.97;;
11338;SDS011;5724;42.684;23.252;2022-10-16T05:55:23;15.03;;;13.53;;
11338;SDS011;5724;42.684;23.252;2022-10-16T05:57:48;14.37;;;13.03;;
11338;SDS011;5724;42.684;23.252;2022-10-16T06:00:14;14.30;;;12.90;;
11338;SDS011;5724;42.684;23.252;2022-10-16T06:02:39;12.52;;;11.43;;
11338;SDS011;5724;42.684;23.252;2022-10-16T06:05:04;12.97;;;11.93;;
11338;SDS011;5724;42.684;23.252;2022-10-16T06:07:33;12.33;;;11.13;;
11338;SDS011;5724;42.684;23.252;2022-10-16T06:10:01;12.70;;;11.40;;
11338;SDS011;5724;42.684;23.252;2022-10-16T06:12:27;14.30;;;12.63;;
11338;SDS011;5724;42.684;23.252;2022-10-16T06:14:53;14.20;;;12.73;;
11338;SDS011;5724;42.684;23.252;2022-10-16T06:17:18;15.30;;;13.90;;
11338;SDS011;5724;42.684;23.252;2022-10-16T06:19:44;14.70;;;13.17;;
11338;SDS011;5724;42.684;23.252;2022-10-16T06:22:09;16.50;;;15.00;;
11338;SDS011;5724;42.684;23.252;2022-10-16T06:24:35;17.48;;;15.57;;
11338;SDS011;5724;42.684;23.252;2022-10-16T06:27:00;18.13;;;14.05;;
11338;SDS011;5724;42.684;23.252;2022-10-16T06:29:25;15.60;;;13.80;;
11338;SDS011;5724;42.684;23.252;2022-10-16T06:31:51;16.27;;;13.88;;
11338;SDS011;5724;42.684;23.252;2022-10-16T06:34:17;17.73;;;15.65;;
11338;SDS011;5724;42.684;23.252;2022-10-16T06:36:43;17.95;;;14.80;;
11338;SDS011;5724;42.684;23.252;2022-10-16T06:39:08;15.63;;;13.63;;
11338;SDS011;5724;42.684;23.252;2022-10-16T06:41:34;15.13;;;13.07;;
11338;SDS011;5724;42.684;23.252;2022-10-16T06:44:00;12.23;;;11.23;;
11338;SDS011;5724;42.684;23.252;2022-10-16T06:46:25;13.60;;;12.32;;
11338;SDS011;5724;42.684;23.252;2022-10-16T06:48:54;13.45;;;12.15;;
11338;SDS011;5724;42.684;23.252;2022-10-16T06:51:21;13.88;;;12.60;;
11338;SDS011;5724;42.684;23.252;2022-10-16T06:53:51;13.80;;;12.45;;
11338;SDS011;5724;42.684;23.252;2022-10-16T06:58:54;13.80;;;12.43;;
11338;SDS011;5724;42.684;23.252;2022-10-16T07:01:20;14.68;;;11.77;;
11338;SDS011;5724;42.684;23.252;2022-10-16T07:03:48;13.35;;;11.85;;
11338;SDS011;5724;42.684;23.252;2022-10-16T07:06:15;12.75;;;11.55;;
11338;SDS011;5724;42.684;23.252;2022-10-16T07:08:42;15.05;;;12.23;;
11338;SDS011;5724;42.684;23.252;2022-10-16T07:11:11;17.63;;;13.75;;
11338;SDS011;5724;42.684;23.252;2022-10-16T07:13:41;15.55;;;13.95;;
11338;SDS011;5724;42.684;23.252;2022-10-16T07:16:12;16.33;;;14.27;;
11338;SDS011;5724;42.684;23.252;2022-10-16T07:18:42;18.70;;;16.95;;
11338;SDS011;5724;42.684;23.252;2022-10-16T07:21:14;25.20;;;22.90;;
11338;SDS011;5724;42.684;23.252;2022-10-16T07:23:42;25.45;;;21.15;;
11338;SDS011;5724;42.684;23.252;2022-10-16T07:26:07;29.38;;;26.30;;
11338;SDS011;5724;42.684;23.252;2022-10-16T07:28:33;22.98;;;20.80;;
11338;SDS011;5724;42.684;23.252;2022-10-16T07:31:00;22.85;;;20.77;;
11338;SDS011;5724;42.684;23.252;2022-10-16T07:33:26;16.35;;;14.85;;
11338;SDS011;5724;42.684;23.252;2022-10-16T07:35:53;16.13;;;14.73;;
11338;SDS011;5724;42.684;23.252;2022-10-16T07:38:20;14.65;;;13.40;;
11338;SDS011;5724;42.684;23.252;2022-10-16T07:40:46;14.27;;;12.80;;
11338;SDS011;5724;42.684;23.252;2022-10-16T07:43:12;13.63;;;12.07;;
11338;SDS011;5724;42.684;23.252;2022-10-16T07:45:45;12.70;;;11.57;;
11338;SDS011;5724;42.684;23.252;2022-10-16T07:48:12;14.50;;;11.85;;
11338;SDS011;5724;42.684;23.252;2022-10-16T07:50:38;11.80;;;10.88;;
11338;SDS011;5724;42.684;23.252;2022-10-16T07:53:03;12.73;;;11.57;;
11338;SDS011;5724;42.684;23.252;2022-10-16T07:55:29;12.75;;;11.45;;
11338;SDS011;5724;42.684;23.252;2022-10-16T07:57:54;11.93;;;10.82;;
11338;SDS011;5724;42.684;23.252;2022-10-16T08:00:20;13.30;;;11.75;;
11338;SDS011;5724;42.684;23.252;2022-10-16T08:02:45;11.77;;;10.65;;
11338;SDS011;5724;42.684;23.252;2022-10-16T08:05:10;16.08;;;11.77;;
11338;SDS011;5724;42.684;23.252;2022-10-16T08:07:36;10.98;;;10.07;;
11338;SDS011;5724;42.684;23.252;2022-10-16T08:10:01;11.20;;;10.00;;
11338;SDS011;5724;42.684;23.252;2022-10-16T08:12:27;12.15;;;11.00;;
11338;SDS011;5724;42.684;23.252;2022-10-16T08:14:53;12.85;;;11.60;;
11338;SDS011;5724;42.684;23.252;2022-10-16T08:17:18;13.93;;;12.55;;
11338;SDS011;5724;42.684;23.252;2022-10-16T08:19:45;12.32;;;11.20;;
11338;SDS011;5724;42.684;23.252;2022-10-16T08:22:11;12.73;;;11.50;;
11338;SDS011;5724;42.684;23.252;2022-10-16T08:24:37;13.55;;;12.23;;
11338;SDS011;5724;42.684;23.252;2022-10-16T08:27:02;11.30;;;10.38;;
11338;SDS011;5724;42.684;23.252;2022-10-16T08:29:29;11.57;;;10.52;;
11338;SDS011;5724;42.684;23.252;2022-10-16T08:31:54;10.82;;;9.80;;
11338;SDS011;5724;42.684;23.252;2022-10-16T08:34:20;10.63;;;9.18;;
11338;SDS011;5724;42.684;23.252;2022-10-16T08:36:45;14.18;;;12.88;;
11338;SDS011;5724;42.684;23.252;2022-10-16T08:39:11;8.95;;;7.90;;
11338;SDS011;5724;42.684;23.252;2022-10-16T08:47:26;7.97;;;7.40;;
11338;SDS011;5724;42.684;23.252;2022-10-16T08:50:02;8.00;;;7.30;;
11338;SDS011;5724;42.684;23.252;2022-10-16T08:52:35;10.38;;;7.55;;
11338;SDS011;5724;42.684;23.252;2022-10-16T08:55:05;7.45;;;6.85;;
11338;SDS011;5724;42.684;23.252;2022-10-16T08:57:31;7.25;;;6.63;;
11338;SDS011;5724;42.684;23.252;2022-10-16T08:59:59;7.18;;;6.55;;
11338;SDS011;5724;42.684;23.252;2022-10-16T09:02:40;6.85;;;6.35;;
11338;SDS011;5724;42.684;23.252;2022-10-16T09:05:32;5.75;;;5.32;;
11338;SDS011;5724;42.684;23.252;2022-10-16T09:11:11;6.68;;;4.90;;
11338;SDS011;5724;42.684;23.252;2022-10-16T09:16:50;5.80;;;5.18;;
11338;SDS011;5724;42.684;23.252;2022-10-16T09:19:35;5.20;;;4.80;;
11338;SDS011;5724;42.684;23.252;2022-10-16T09:22:10;4.82;;;4.47;;
11338;SDS011;5724;42.684;23.252;2022-10-16T09:24:39;5.03;;;4.35;;
11338;SDS011;5724;42.684;23.252;2022-10-16T09:27:10;3.97;;;3.78;;
11338;SDS011;5724;42.684;23.252;2022-10-16T09:29:37;4.93;;;4.18;;
11338;SDS011;5724;42.684;23.252;2022-10-16T09:32:15;5.38;;;3.78;;
11338;SDS011;5724;42.684;23.252;2022-10-16T09:34:48;4.07;;;3.75;;
11338;SDS011;5724;42.684;23.252;2022-10-16T09:37:20;4.47;;;4.07;;
11338;SDS011;5724;42.684;23.252;2022-10-16T09:39:48;4.60;;;4.38;;
11338;SDS011;5724;42.684;23.252;2022-10-16T09:42:23;4.25;;;3.72;;
11338;SDS011;5724;42.684;23.252;2022-10-16T09:45:19;7.07;;;3.95;;
11338;SDS011;5724;42.684;23.252;2022-10-16T09:47:46;16.52;;;10.38;;
11338;SDS011;5724;42.684;23.252;2022-10-16T09:50:25;8.68;;;7.30;;
11338;SDS011;5724;42.684;23.252;2022-10-16T09:53:05;4.38;;;3.80;;
11338;SDS011;5724;42.684;23.252;2022-10-16T09:55:35;3.83;;;3.63;;
11338;SDS011;5724;42.684;23.252;2022-10-16T09:58:01;3.67;;;3.47;;
11338;SDS011;5724;42.684;23.252;2022-10-16T10:00:26;38.10;;;18.85;;
11338;SDS011;5724;42.684;23.252;2022-10-16T10:02:52;8.73;;;7.00;;
11338;SDS011;5724;42.684;23.252;2022-10-16T10:08:02;4.07;;;3.78;;
11338;SDS011;5724;42.684;23.252;2022-10-16T10:10:31;4.82;;;4.35;;
11338;SDS011;5724;42.684;23.252;2022-10-16T10:13:02;4.00;;;3.63;;
11338;SDS011;5724;42.684;23.252;2022-10-16T10:15:27;3.50;;;3.30;;
11338;SDS011;5724;42.684;23.252;2022-10-16T10:17:58;3.97;;;3.58;;
11338;SDS011;5724;42.684;23.252;2022-10-16T10:22:54;3.40;;;3.20;;
11338;SDS011;5724;42.684;23.252;2022-10-16T10:25:26;3.65;;;3.28;;
11338;SDS011;5724;42.684;23.252;2022-10-16T10:49:50;3.53;;;3.22;;
11338;SDS011;5724;42.684;23.252;2022-10-16T10:52:41;4.05;;;3.75;;
11338;SDS011;5724;42.684;23.252;2022-10-16T11:06:22;3.47;;;3.22;;
11338;SDS011;5724;42.684;23.252;2022-10-16T11:09:12;3.22;;;2.92;;
11338;SDS011;5724;42.684;23.252;2022-10-16T11:14:22;3.65;;;3.10;;
11338;SDS011;5724;42.684;23.252;2022-10-16T11:16:56;3.05;;;2.90;;
11338;SDS011;5724;42.684;23.252;2022-10-16T11:19:37;3.08;;;2.85;;
11338;SDS011;5724;42.684;23.252;2022-10-16T11:25:13;2.92;;;2.72;;
11338;SDS011;5724;42.684;23.252;2022-10-16T11:27:47;3.65;;;2.92;;
11338;SDS011;5724;42.684;23.252;2022-10-16T11:30:23;3.65;;;2.83;;
11338;SDS011;5724;42.684;23.252;2022-10-16T11:38:10;4.93;;;4.50;;
11338;SDS011;5724;42.684;23.252;2022-10-16T11:40:45;4.57;;;4.28;;
11338;SDS011;5724;42.684;23.252;2022-10-16T11:43:22;4.15;;;3.53;;
11338;SDS011;5724;42.684;23.252;2022-10-16T11:45:57;5.97;;;3.65;;
11338;SDS011;5724;42.684;23.252;2022-10-16T11:48:31;2.75;;;2.55;;
11338;SDS011;5724;42.684;23.252;2022-10-16T11:51:17;3.35;;;3.00;;
11338;SDS011;5724;42.684;23.252;2022-10-16T11:56:32;3.30;;;3.10;;
11338;SDS011;5724;42.684;23.252;2022-10-16T11:59:05;3.50;;;2.85;;
11338;SDS011;5724;42.684;23.252;2022-10-16T12:07:57;3.33;;;3.13;;
11338;SDS011;5724;42.684;23.252;2022-10-16T12:10:31;5.18;;;3.20;;
11338;SDS011;5724;42.684;23.252;2022-10-16T12:13:01;3.53;;;3.22;;
11338;SDS011;5724;42.684;23.252;2022-10-16T12:15:50;3.85;;;3.10;;
11338;SDS011;5724;42.684;23.252;2022-10-16T12:18:20;2.40;;;2.30;;
11338;SDS011;5724;42.684;23.252;2022-10-16T12:20:58;2.95;;;2.40;;
11338;SDS011;5724;42.684;23.252;2022-10-16T12:23:29;3.08;;;2.88;;
11338;SDS011;5724;42.684;23.252;2022-10-16T12:25:56;2.80;;;2.60;;
11338;SDS011;5724;42.684;23.252;2022-10-16T12:28:27;3.10;;;2.75;;
11338;SDS011;5724;42.684;23.252;2022-10-16T12:31:05;2.80;;;2.70;;
11338;SDS011;5724;42.684;23.252;2022-10-16T12:33:34;3.00;;;2.83;;
11338;SDS011;5724;42.684;23.252;2022-10-16T12:36:00;3.05;;;2.75;;
11338;SDS011;5724;42.684;23.252;2022-10-16T12:41:11;3.10;;;3.00;;
11338;SDS011;5724;42.684;23.252;2022-10-16T12:43:38;3.47;;;3.28;;
11338;SDS011;5724;42.684;23.252;2022-10-16T12:48:30;3.00;;;2.80;;
11338;SDS011;5724;42.684;23.252;2022-10-16T12:50:56;3.22;;;2.70;;
11338;SDS011;5724;42.684;23.252;2022-10-16T12:53:22;3.15;;;2.65;;
11338;SDS011;5724;42.684;23.252;2022-10-16T12:56:04;2.85;;;2.60;;
11338;SDS011;5724;42.684;23.252;2022-10-16T13:01:42;4.90;;;3.10;;
11338;SDS011;5724;42.684;23.252;2022-10-16T13:09:25;3.42;;;3.22;;
11338;SDS011;5724;42.684;23.252;2022-10-16T13:17:13;3.50;;;3.25;;
11338;SDS011;5724;42.684;23.252;2022-10-16T13:28:12;5.40;;;4.07;;
11338;SDS011;5724;42.684;23.252;2022-10-16T13:30:40;4.97;;;3.53;;
11338;SDS011;5724;42.684;23.252;2022-10-16T13:33:15;3.45;;;3.15;;
11338;SDS011;5724;42.684;23.252;2022-10-16T13:35:49;3.38;;;2.80;;
11338;SDS011;5724;42.684;23.252;2022-10-16T13:38:18;8.93;;;8.13;;
11338;SDS011;5724;42.684;23.252;2022-10-16T13:43:18;4.80;;;4.35;;
11338;SDS011;5724;42.684;23.252;2022-10-16T13:45:55;5.32;;;4.93;;
11338;SDS011;5724;42.684;23.252;2022-10-16T13:48:23;2.72;;;2.63;;
11338;SDS011;5724;42.684;23.252;2022-10-16T13:53:40;3.13;;;2.92;;
11338;SDS011;5724;42.684;23.252;2022-10-16T13:56:09;4.30;;;3.85;;
11338;SDS011;5724;42.684;23.252;2022-10-16T13:58:37;3.33;;;2.88;;
11338;SDS011;5724;42.684;23.252;2022-10-16T14:01:04;3.30;;;3.00;;
11338;SDS011;5724;42.684;23.252;2022-10-16T14:03:31;3.75;;;3.35;;
11338;SDS011;5724;42.684;23.252;2022-10-16T14:06:00;4.97;;;3.60;;
11338;SDS011;5724;42.684;23.252;2022-10-16T14:11:44;4.45;;;3.83;;
11338;SDS011;5724;42.684;23.252;2022-10-16T14:14:13;3.40;;;3.20;;
11338;SDS011;5724;42.684;23.252;2022-10-16T14:16:40;2.80;;;2.60;;
11338;SDS011;5724;42.684;23.252;2022-10-16T14:19:27;2.70;;;2.50;;
11338;SDS011;5724;42.684;23.252;2022-10-16T14:21:54;2.78;;;2.65;;
11338;SDS011;5724;42.684;23.252;2022-10-16T14:24:24;2.92;;;2.30;;
11338;SDS011;5724;42.684;23.252;2022-10-16T14:26:52;2.60;;;2.50;;
11338;SDS011;5724;42.684;23.252;2022-10-16T14:29:21;2.70;;;2.60;;
11338;SDS011;5724;42.684;23.252;2022-10-16T14:32:52;3.05;;;2.47;;
11338;SDS011;5724;42.684;23.252;2022-10-16T14:34:52;2.85;;;2.67;;
11338;SDS011;5724;42.684;23.252;2022-10-16T14:37:28;14.98;;;10.15;;
11338;SDS011;5724;42.684;23.252;2022-10-16T14:39:55;3.42;;;3.28;;
11338;SDS011;5724;42.684;23.252;2022-10-16T14:42:22;3.13;;;2.80;;
11338;SDS011;5724;42.684;23.252;2022-10-16T14:44:50;3.70;;;2.90;;
11338;SDS011;5724;42.684;23.252;2022-10-16T14:47:20;3.63;;;2.80;;
11338;SDS011;5724;42.684;23.252;2022-10-16T14:49:51;4.40;;;3.40;;
11338;SDS011;5724;42.684;23.252;2022-10-16T14:52:20;2.92;;;2.50;;
11338;SDS011;5724;42.684;23.252;2022-10-16T14:54:49;3.13;;;2.83;;
11338;SDS011;5724;42.684;23.252;2022-10-16T14:57:18;3.35;;;3.17;;
11338;SDS011;5724;42.684;23.252;2022-10-16T14:59:45;3.28;;;2.55;;
11338;SDS011;5724;42.684;23.252;2022-10-16T15:02:45;2.28;;;2.17;;
11338;SDS011;5724;42.684;23.252;2022-10-16T15:05:20;3.85;;;2.80;;
11338;SDS011;5724;42.684;23.252;2022-10-16T15:07:53;3.30;;;3.10;;
11338;SDS011;5724;42.684;23.252;2022-10-16T15:10:20;3.30;;;3.10;;
11338;SDS011;5724;42.684;23.252;2022-10-16T15:12:47;6.70;;;6.18;;
11338;SDS011;5724;42.684;23.252;2022-10-16T15:17:47;3.92;;;3.17;;
11338;SDS011;5724;42.684;23.252;2022-10-16T15:20:13;5.55;;;3.25;;
11338;SDS011;5724;42.684;23.252;2022-10-16T15:22:39;2.90;;;2.55;;
11338;SDS011;5724;42.684;23.252;2022-10-16T15:25:25;4.18;;;3.80;;
11338;SDS011;5724;42.684;23.252;2022-10-16T15:27:51;3.65;;;3.28;;
11338;SDS011;5724;42.684;23.252;2022-10-16T15:30:35;12.18;;;11.07;;
11338;SDS011;5724;42.684;23.252;2022-10-16T15:33:02;4.00;;;3.80;;
11338;SDS011;5724;42.684;23.252;2022-10-16T15:35:28;4.00;;;3.70;;
11338;SDS011;5724;42.684;23.252;2022-10-16T15:37:54;4.22;;;3.05;;
11338;SDS011;5724;42.684;23.252;2022-10-16T15:40:20;4.68;;;4.25;;
11338;SDS011;5724;42.684;23.252;2022-10-16T15:42:47;5.78;;;5.38;;
11338;SDS011;5724;42.684;23.252;2022-10-16T15:45:14;6.03;;;5.40;;
11338;SDS011;5724;42.684;23.252;2022-10-16T15:47:43;5.63;;;5.22;;
11338;SDS011;5724;42.684;23.252;2022-10-16T15:50:12;6.78;;;6.20;;
11338;SDS011;5724;42.684;23.252;2022-10-16T15:52:39;9.88;;;9.07;;
11338;SDS011;5724;42.684;23.252;2022-10-16T15:55:06;9.75;;;8.93;;
11338;SDS011;5724;42.684;23.252;2022-10-16T15:57:33;9.70;;;9.15;;
11338;SDS011;5724;42.684;23.252;2022-10-16T15:59:59;12.48;;;11.48;;
11338;SDS011;5724;42.684;23.252;2022-10-16T16:02:24;10.07;;;9.15;;
11338;SDS011;5724;42.684;23.252;2022-10-16T16:04:49;14.05;;;12.25;;
11338;SDS011;5724;42.684;23.252;2022-10-16T16:07:15;11.65;;;10.45;;
11338;SDS011;5724;42.684;23.252;2022-10-16T16:09:40;14.18;;;10.50;;
11338;SDS011;5724;42.684;23.252;2022-10-16T16:12:06;13.18;;;10.40;;
11338;SDS011;5724;42.684;23.252;2022-10-16T16:14:32;12.02;;;9.48;;
11338;SDS011;5724;42.684;23.252;2022-10-16T16:16:57;13.02;;;9.38;;
11338;SDS011;5724;42.684;23.252;2022-10-16T16:19:23;20.27;;;10.57;;
11338;SDS011;5724;42.684;23.252;2022-10-16T16:21:49;13.57;;;10.10;;
11338;SDS011;5724;42.684;23.252;2022-10-16T16:24:15;15.68;;;13.95;;
11338;SDS011;5724;42.684;23.252;2022-10-16T16:26:41;11.73;;;10.40;;
11338;SDS011;5724;42.684;23.252;2022-10-16T16:29:11;12.27;;;8.70;;
11338;SDS011;5724;42.684;23.252;2022-10-16T16:31:39;7.30;;;6.68;;
11338;SDS011;5724;42.684;23.252;2022-10-16T16:34:05;9.73;;;8.82;;
11338;SDS011;5724;42.684;23.252;2022-10-16T16:36:31;5.38;;;5.00;;
11338;SDS011;5724;42.684;23.252;2022-10-16T16:38:57;6.60;;;5.72;;
11338;SDS011;5724;42.684;23.252;2022-10-16T16:41:23;12.20;;;10.90;;
11338;SDS011;5724;42.684;23.252;2022-10-16T16:43:51;8.60;;;7.78;;
11338;SDS011;5724;42.684;23.252;2022-10-16T16:46:17;6.78;;;6.28;;
11338;SDS011;5724;42.684;23.252;2022-10-16T16:48:43;10.75;;;6.70;;
11338;SDS011;5724;42.684;23.252;2022-10-16T16:51:10;9.57;;;8.63;;